sensor_id;sensor_type;location;lat;lon;timestamp;P1;durP1;ratioP1;P2;durP2;ratioP2
34988;SDS011;21192;40.182;44.516;2023-09-18T00:00:51;14.60;;;5.32;;
34988;SDS011;21192;40.182;44.516;2023-09-18T00:03:17;13.95;;;5.38;;
34988;SDS011;21192;40.182;44.516;2023-09-18T00:05:48;15.48;;;5.53;;
34988;SDS011;21192;40.182;44.516;2023-09-18T00:08:14;18.42;;;5.32;;
34988;SDS011;21192;40.182;44.516;2023-09-18T00:10:41;15.88;;;5.85;;
34988;SDS011;21192;40.182;44.516;2023-09-18T00:13:07;15.25;;;5.28;;
34988;SDS011;21192;40.182;44.516;2023-09-18T00:15:33;10.88;;;4.80;;
34988;SDS011;21192;40.182;44.516;2023-09-18T00:17:58;14.25;;;5.47;;
34988;SDS011;21192;40.182;44.516;2023-09-18T00:20:24;11.45;;;4.97;;
34988;SDS011;21192;40.182;44.516;2023-09-18T00:22:54;10.18;;;4.30;;
34988;SDS011;21192;40.182;44.516;2023-09-18T00:25:21;13.02;;;4.65;;
34988;SDS011;21192;40.182;44.516;2023-09-18T00:27:47;16.05;;;5.28;;
34988;SDS011;21192;40.182;44.516;2023-09-18T00:30:14;11.02;;;4.78;;
34988;SDS011;21192;40.182;44.516;2023-09-18T00:32:39;10.45;;;4.78;;
34988;SDS011;21192;40.182;44.516;2023-09-18T00:35:05;12.75;;;4.25;;
34988;SDS011;21192;40.182;44.516;2023-09-18T00:37:31;11.95;;;4.90;;
34988;SDS011;21192;40.182;44.516;2023-09-18T00:39:57;10.40;;;4.57;;
34988;SDS011;21192;40.182;44.516;2023-09-18T00:42:24;10.65;;;4.53;;
34988;SDS011;21192;40.182;44.516;2023-09-18T00:44:50;10.52;;;4.15;;
34988;SDS011;21192;40.182;44.516;2023-09-18T00:47:16;11.02;;;4.55;;
34988;SDS011;21192;40.182;44.516;2023-09-18T00:49:43;9.85;;;4.25;;
34988;SDS011;21192;40.182;44.516;2023-09-18T00:52:12;11.93;;;4.60;;
34988;SDS011;21192;40.182;44.516;2023-09-18T00:54:40;10.20;;;4.93;;
34988;SDS011;21192;40.182;44.516;2023-09-18T00:57:08;12.27;;;4.60;;
34988;SDS011;21192;40.182;44.516;2023-09-18T00:59:35;11.20;;;5.20;;
34988;SDS011;21192;40.182;44.516;2023-09-18T01:02:02;10.77;;;4.68;;
34988;SDS011;21192;40.182;44.516;2023-09-18T01:04:28;11.05;;;4.57;;
34988;SDS011;21192;40.182;44.516;2023-09-18T01:06:57;11.05;;;4.50;;
34988;SDS011;21192;40.182;44.516;2023-09-18T01:09:29;8.20;;;3.80;;
34988;SDS011;21192;40.182;44.516;2023-09-18T01:12:16;9.18;;;4.07;;
34988;SDS011;21192;40.182;44.516;2023-09-18T01:17:25;10.95;;;5.00;;
34988;SDS011;21192;40.182;44.516;2023-09-18T01:19:51;7.85;;;3.95;;
34988;SDS011;21192;40.182;44.516;2023-09-18T01:22:18;7.93;;;3.38;;
34988;SDS011;21192;40.182;44.516;2023-09-18T01:24:47;8.90;;;3.50;;
34988;SDS011;21192;40.182;44.516;2023-09-18T01:27:15;6.80;;;3.42;;
34988;SDS011;21192;40.182;44.516;2023-09-18T01:29:45;6.03;;;3.25;;
34988;SDS011;21192;40.182;44.516;2023-09-18T01:32:12;6.22;;;3.42;;
34988;SDS011;21192;40.182;44.516;2023-09-18T01:34:46;6.18;;;3.45;;
34988;SDS011;21192;40.182;44.516;2023-09-18T01:37:13;7.93;;;3.50;;
34988;SDS011;21192;40.182;44.516;2023-09-18T01:39:42;8.48;;;4.00;;
34988;SDS011;21192;40.182;44.516;2023-09-18T01:42:10;5.90;;;3.10;;
34988;SDS011;21192;40.182;44.516;2023-09-18T01:44:36;7.80;;;3.95;;
34988;SDS011;21192;40.182;44.516;2023-09-18T01:47:03;8.52;;;4.57;;
34988;SDS011;21192;40.182;44.516;2023-09-18T01:49:32;10.02;;;4.63;;
34988;SDS011;21192;40.182;44.516;2023-09-18T01:52:00;10.02;;;4.03;;
34988;SDS011;21192;40.182;44.516;2023-09-18T01:54:26;10.68;;;4.13;;
34988;SDS011;21192;40.182;44.516;2023-09-18T01:56:52;9.02;;;4.07;;
34988;SDS011;21192;40.182;44.516;2023-09-18T01:59:19;9.77;;;4.25;;
34988;SDS011;21192;40.182;44.516;2023-09-18T02:01:45;13.75;;;4.90;;
34988;SDS011;21192;40.182;44.516;2023-09-18T02:04:11;14.57;;;4.60;;
34988;SDS011;21192;40.182;44.516;2023-09-18T02:06:37;8.98;;;4.40;;
34988;SDS011;21192;40.182;44.516;2023-09-18T02:09:03;10.07;;;4.90;;
34988;SDS011;21192;40.182;44.516;2023-09-18T02:11:29;10.45;;;4.47;;
34988;SDS011;21192;40.182;44.516;2023-09-18T02:13:54;10.93;;;4.28;;
34988;SDS011;21192;40.182;44.516;2023-09-18T02:16:21;11.70;;;4.47;;
34988;SDS011;21192;40.182;44.516;2023-09-18T02:18:47;10.90;;;4.20;;
34988;SDS011;21192;40.182;44.516;2023-09-18T02:21:20;9.68;;;4.63;;
34988;SDS011;21192;40.182;44.516;2023-09-18T02:23:49;11.43;;;4.63;;
34988;SDS011;21192;40.182;44.516;2023-09-18T02:26:17;16.33;;;5.13;;
34988;SDS011;21192;40.182;44.516;2023-09-18T02:28:43;10.95;;;4.50;;
34988;SDS011;21192;40.182;44.516;2023-09-18T02:31:09;11.63;;;4.93;;
34988;SDS011;21192;40.182;44.516;2023-09-18T02:33:35;13.25;;;4.80;;
34988;SDS011;21192;40.182;44.516;2023-09-18T02:36:01;15.73;;;5.22;;
34988;SDS011;21192;40.182;44.516;2023-09-18T02:38:28;14.40;;;5.03;;
34988;SDS011;21192;40.182;44.516;2023-09-18T02:40:57;14.20;;;5.25;;
34988;SDS011;21192;40.182;44.516;2023-09-18T02:43:23;14.35;;;5.22;;
34988;SDS011;21192;40.182;44.516;2023-09-18T02:45:49;12.52;;;5.07;;
34988;SDS011;21192;40.182;44.516;2023-09-18T02:48:16;11.38;;;5.20;;
34988;SDS011;21192;40.182;44.516;2023-09-18T02:50:42;11.93;;;5.68;;
34988;SDS011;21192;40.182;44.516;2023-09-18T02:53:17;13.35;;;5.40;;
34988;SDS011;21192;40.182;44.516;2023-09-18T02:55:43;13.93;;;5.38;;
34988;SDS011;21192;40.182;44.516;2023-09-18T02:58:09;16.40;;;5.50;;
34988;SDS011;21192;40.182;44.516;2023-09-18T03:00:40;16.33;;;5.20;;
34988;SDS011;21192;40.182;44.516;2023-09-18T03:03:08;12.98;;;4.80;;
34988;SDS011;21192;40.182;44.516;2023-09-18T03:05:35;12.52;;;5.38;;
34988;SDS011;21192;40.182;44.516;2023-09-18T03:08:01;14.55;;;5.07;;
34988;SDS011;21192;40.182;44.516;2023-09-18T03:10:27;13.70;;;5.63;;
34988;SDS011;21192;40.182;44.516;2023-09-18T03:12:53;11.48;;;5.25;;
34988;SDS011;21192;40.182;44.516;2023-09-18T03:15:19;13.02;;;4.55;;
34988;SDS011;21192;40.182;44.516;2023-09-18T03:17:44;12.93;;;4.70;;
34988;SDS011;21192;40.182;44.516;2023-09-18T03:20:10;19.13;;;4.75;;
34988;SDS011;21192;40.182;44.516;2023-09-18T03:22:36;12.85;;;4.60;;
34988;SDS011;21192;40.182;44.516;2023-09-18T03:25:02;12.00;;;4.70;;
34988;SDS011;21192;40.182;44.516;2023-09-18T03:27:28;14.63;;;5.32;;
34988;SDS011;21192;40.182;44.516;2023-09-18T03:29:56;15.98;;;4.32;;
34988;SDS011;21192;40.182;44.516;2023-09-18T03:32:23;11.73;;;4.85;;
34988;SDS011;21192;40.182;44.516;2023-09-18T03:34:52;8.98;;;4.25;;
34988;SDS011;21192;40.182;44.516;2023-09-18T03:37:18;8.65;;;4.20;;
34988;SDS011;21192;40.182;44.516;2023-09-18T03:39:44;10.88;;;4.32;;
34988;SDS011;21192;40.182;44.516;2023-09-18T03:42:10;18.40;;;4.85;;
34988;SDS011;21192;40.182;44.516;2023-09-18T03:44:36;12.18;;;4.93;;
34988;SDS011;21192;40.182;44.516;2023-09-18T03:47:02;10.80;;;4.95;;
34988;SDS011;21192;40.182;44.516;2023-09-18T03:49:29;9.65;;;4.43;;
34988;SDS011;21192;40.182;44.516;2023-09-18T03:51:54;15.18;;;4.78;;
34988;SDS011;21192;40.182;44.516;2023-09-18T03:54:20;13.50;;;4.97;;
34988;SDS011;21192;40.182;44.516;2023-09-18T03:56:46;10.57;;;4.47;;
34988;SDS011;21192;40.182;44.516;2023-09-18T03:59:12;13.57;;;5.68;;
34988;SDS011;21192;40.182;44.516;2023-09-18T04:01:39;13.85;;;4.78;;
34988;SDS011;21192;40.182;44.516;2023-09-18T04:04:05;13.68;;;5.57;;
34988;SDS011;21192;40.182;44.516;2023-09-18T04:06:40;12.23;;;4.95;;
34988;SDS011;21192;40.182;44.516;2023-09-18T04:09:06;16.55;;;6.15;;
34988;SDS011;21192;40.182;44.516;2023-09-18T04:11:32;16.65;;;6.18;;
34988;SDS011;21192;40.182;44.516;2023-09-18T04:13:59;17.58;;;5.65;;
34988;SDS011;21192;40.182;44.516;2023-09-18T04:16:28;17.48;;;5.75;;
34988;SDS011;21192;40.182;44.516;2023-09-18T04:19:01;16.40;;;5.43;;
34988;SDS011;21192;40.182;44.516;2023-09-18T04:21:27;12.88;;;5.10;;
34988;SDS011;21192;40.182;44.516;2023-09-18T04:23:54;12.98;;;5.53;;
34988;SDS011;21192;40.182;44.516;2023-09-18T04:26:22;16.55;;;6.35;;
34988;SDS011;21192;40.182;44.516;2023-09-18T04:28:48;19.60;;;7.10;;
34988;SDS011;21192;40.182;44.516;2023-09-18T04:31:14;22.05;;;8.30;;
34988;SDS011;21192;40.182;44.516;2023-09-18T04:33:41;18.58;;;9.02;;
34988;SDS011;21192;40.182;44.516;2023-09-18T04:36:07;20.73;;;8.45;;
34988;SDS011;21192;40.182;44.516;2023-09-18T04:38:33;16.13;;;8.00;;
34988;SDS011;21192;40.182;44.516;2023-09-18T04:40:59;18.25;;;7.03;;
34988;SDS011;21192;40.182;44.516;2023-09-18T04:43:25;19.00;;;8.30;;
34988;SDS011;21192;40.182;44.516;2023-09-18T04:45:51;16.98;;;9.10;;
34988;SDS011;21192;40.182;44.516;2023-09-18T04:48:17;14.02;;;7.13;;
34988;SDS011;21192;40.182;44.516;2023-09-18T04:50:43;15.63;;;7.07;;
34988;SDS011;21192;40.182;44.516;2023-09-18T04:53:09;19.48;;;6.00;;
34988;SDS011;21192;40.182;44.516;2023-09-18T04:55:35;14.55;;;4.95;;
34988;SDS011;21192;40.182;44.516;2023-09-18T04:58:00;19.17;;;4.97;;
34988;SDS011;21192;40.182;44.516;2023-09-18T05:00:29;18.42;;;5.68;;
34988;SDS011;21192;40.182;44.516;2023-09-18T05:02:54;15.57;;;5.70;;
34988;SDS011;21192;40.182;44.516;2023-09-18T05:05:20;14.43;;;5.38;;
34988;SDS011;21192;40.182;44.516;2023-09-18T05:07:46;16.40;;;5.18;;
34988;SDS011;21192;40.182;44.516;2023-09-18T05:10:12;12.20;;;4.45;;
34988;SDS011;21192;40.182;44.516;2023-09-18T05:12:38;14.15;;;3.80;;
34988;SDS011;21192;40.182;44.516;2023-09-18T05:15:06;11.40;;;4.22;;
34988;SDS011;21192;40.182;44.516;2023-09-18T05:18:05;12.98;;;4.13;;
34988;SDS011;21192;40.182;44.516;2023-09-18T05:20:25;16.73;;;4.25;;
34988;SDS011;21192;40.182;44.516;2023-09-18T05:22:55;15.10;;;4.50;;
34988;SDS011;21192;40.182;44.516;2023-09-18T05:25:22;17.98;;;4.25;;
34988;SDS011;21192;40.182;44.516;2023-09-18T05:27:53;13.77;;;4.68;;
34988;SDS011;21192;40.182;44.516;2023-09-18T05:30:29;15.30;;;3.90;;
34988;SDS011;21192;40.182;44.516;2023-09-18T05:32:58;12.57;;;3.70;;
34988;SDS011;21192;40.182;44.516;2023-09-18T05:35:50;11.32;;;3.55;;
34988;SDS011;21192;40.182;44.516;2023-09-18T05:38:16;14.57;;;4.13;;
34988;SDS011;21192;40.182;44.516;2023-09-18T05:40:43;14.88;;;4.18;;
34988;SDS011;21192;40.182;44.516;2023-09-18T05:43:10;13.98;;;3.80;;
34988;SDS011;21192;40.182;44.516;2023-09-18T05:45:37;12.50;;;3.67;;
34988;SDS011;21192;40.182;44.516;2023-09-18T05:48:03;19.83;;;4.30;;
34988;SDS011;21192;40.182;44.516;2023-09-18T05:50:30;17.50;;;3.63;;
34988;SDS011;21192;40.182;44.516;2023-09-18T05:52:57;13.27;;;3.75;;
34988;SDS011;21192;40.182;44.516;2023-09-18T05:55:29;21.88;;;5.03;;
34988;SDS011;21192;40.182;44.516;2023-09-18T05:58:01;8.98;;;2.83;;
34988;SDS011;21192;40.182;44.516;2023-09-18T06:00:29;11.55;;;3.22;;
34988;SDS011;21192;40.182;44.516;2023-09-18T06:02:58;10.15;;;3.28;;
34988;SDS011;21192;40.182;44.516;2023-09-18T06:05:24;7.65;;;3.40;;
34988;SDS011;21192;40.182;44.516;2023-09-18T06:07:50;12.20;;;3.35;;
34988;SDS011;21192;40.182;44.516;2023-09-18T06:10:16;16.15;;;4.82;;
34988;SDS011;21192;40.182;44.516;2023-09-18T06:12:42;11.15;;;3.65;;
34988;SDS011;21192;40.182;44.516;2023-09-18T06:15:09;9.65;;;3.65;;
34988;SDS011;21192;40.182;44.516;2023-09-18T06:17:40;9.30;;;3.88;;
34988;SDS011;21192;40.182;44.516;2023-09-18T06:20:08;7.85;;;3.28;;
34988;SDS011;21192;40.182;44.516;2023-09-18T06:22:39;15.60;;;3.97;;
34988;SDS011;21192;40.182;44.516;2023-09-18T06:25:06;12.88;;;4.10;;
34988;SDS011;21192;40.182;44.516;2023-09-18T06:27:36;13.07;;;4.40;;
34988;SDS011;21192;40.182;44.516;2023-09-18T06:30:03;10.32;;;3.92;;
34988;SDS011;21192;40.182;44.516;2023-09-18T06:32:30;39.40;;;7.10;;
34988;SDS011;21192;40.182;44.516;2023-09-18T06:34:56;12.05;;;4.20;;
34988;SDS011;21192;40.182;44.516;2023-09-18T06:37:23;16.65;;;4.95;;
34988;SDS011;21192;40.182;44.516;2023-09-18T06:39:49;13.65;;;4.78;;
34988;SDS011;21192;40.182;44.516;2023-09-18T06:42:15;34.63;;;8.23;;
34988;SDS011;21192;40.182;44.516;2023-09-18T06:44:41;22.67;;;5.30;;
34988;SDS011;21192;40.182;44.516;2023-09-18T06:47:06;17.15;;;5.45;;
34988;SDS011;21192;40.182;44.516;2023-09-18T06:49:32;16.77;;;5.00;;
34988;SDS011;21192;40.182;44.516;2023-09-18T06:51:59;24.10;;;5.90;;
34988;SDS011;21192;40.182;44.516;2023-09-18T06:54:25;22.95;;;5.70;;
34988;SDS011;21192;40.182;44.516;2023-09-18T06:56:51;17.23;;;5.45;;
34988;SDS011;21192;40.182;44.516;2023-09-18T06:59:16;19.98;;;5.43;;
34988;SDS011;21192;40.182;44.516;2023-09-18T07:01:42;13.23;;;5.05;;
34988;SDS011;21192;40.182;44.516;2023-09-18T07:04:08;19.73;;;8.50;;
34988;SDS011;21192;40.182;44.516;2023-09-18T07:06:34;17.65;;;5.90;;
34988;SDS011;21192;40.182;44.516;2023-09-18T07:09:00;24.05;;;5.82;;
34988;SDS011;21192;40.182;44.516;2023-09-18T07:11:27;19.98;;;6.47;;
34988;SDS011;21192;40.182;44.516;2023-09-18T07:13:52;15.13;;;6.00;;
34988;SDS011;21192;40.182;44.516;2023-09-18T07:16:18;20.02;;;6.03;;
34988;SDS011;21192;40.182;44.516;2023-09-18T07:18:44;24.48;;;5.93;;
34988;SDS011;21192;40.182;44.516;2023-09-18T07:21:10;20.38;;;6.40;;
34988;SDS011;21192;40.182;44.516;2023-09-18T07:23:36;31.08;;;7.10;;
34988;SDS011;21192;40.182;44.516;2023-09-18T07:26:04;25.63;;;6.50;;
34988;SDS011;21192;40.182;44.516;2023-09-18T07:28:31;19.45;;;6.30;;
34988;SDS011;21192;40.182;44.516;2023-09-18T07:31:02;23.17;;;6.47;;
34988;SDS011;21192;40.182;44.516;2023-09-18T07:33:30;22.40;;;6.40;;
34988;SDS011;21192;40.182;44.516;2023-09-18T07:35:56;15.90;;;5.95;;
34988;SDS011;21192;40.182;44.516;2023-09-18T07:38:22;15.05;;;4.68;;
34988;SDS011;21192;40.182;44.516;2023-09-18T07:40:50;25.33;;;6.60;;
34988;SDS011;21192;40.182;44.516;2023-09-18T07:43:15;24.17;;;6.18;;
34988;SDS011;21192;40.182;44.516;2023-09-18T07:45:41;17.13;;;4.57;;
34988;SDS011;21192;40.182;44.516;2023-09-18T07:48:07;17.75;;;4.43;;
34988;SDS011;21192;40.182;44.516;2023-09-18T07:50:34;11.73;;;4.57;;
34988;SDS011;21192;40.182;44.516;2023-09-18T07:53:01;10.00;;;4.20;;
34988;SDS011;21192;40.182;44.516;2023-09-18T07:55:27;11.80;;;4.18;;
34988;SDS011;21192;40.182;44.516;2023-09-18T07:57:54;15.88;;;5.30;;
34988;SDS011;21192;40.182;44.516;2023-09-18T08:00:20;15.10;;;5.05;;
34988;SDS011;21192;40.182;44.516;2023-09-18T08:02:48;28.20;;;6.28;;
34988;SDS011;21192;40.182;44.516;2023-09-18T08:05:15;26.00;;;6.60;;
34988;SDS011;21192;40.182;44.516;2023-09-18T08:07:41;19.92;;;5.03;;
34988;SDS011;21192;40.182;44.516;2023-09-18T08:10:08;15.90;;;4.30;;
34988;SDS011;21192;40.182;44.516;2023-09-18T08:12:34;12.48;;;4.35;;
34988;SDS011;21192;40.182;44.516;2023-09-18T08:15:01;14.93;;;4.80;;
34988;SDS011;21192;40.182;44.516;2023-09-18T08:17:27;17.80;;;4.72;;
34988;SDS011;21192;40.182;44.516;2023-09-18T08:19:53;16.02;;;5.78;;
34988;SDS011;21192;40.182;44.516;2023-09-18T08:22:20;12.48;;;5.18;;
34988;SDS011;21192;40.182;44.516;2023-09-18T08:24:47;13.75;;;4.85;;
34988;SDS011;21192;40.182;44.516;2023-09-18T08:27:16;14.98;;;5.35;;
34988;SDS011;21192;40.182;44.516;2023-09-18T08:29:50;12.73;;;4.25;;
34988;SDS011;21192;40.182;44.516;2023-09-18T08:32:16;16.02;;;4.80;;
34988;SDS011;21192;40.182;44.516;2023-09-18T08:34:42;25.33;;;7.05;;
34988;SDS011;21192;40.182;44.516;2023-09-18T08:37:08;23.38;;;5.70;;
34988;SDS011;21192;40.182;44.516;2023-09-18T08:39:34;17.17;;;5.20;;
34988;SDS011;21192;40.182;44.516;2023-09-18T08:42:05;17.10;;;5.28;;
34988;SDS011;21192;40.182;44.516;2023-09-18T08:44:34;23.55;;;5.97;;
34988;SDS011;21192;40.182;44.516;2023-09-18T08:47:03;12.15;;;4.63;;
34988;SDS011;21192;40.182;44.516;2023-09-18T08:49:31;13.80;;;5.18;;
34988;SDS011;21192;40.182;44.516;2023-09-18T08:51:58;17.23;;;5.50;;
34988;SDS011;21192;40.182;44.516;2023-09-18T08:54:25;21.20;;;5.03;;
34988;SDS011;21192;40.182;44.516;2023-09-18T08:56:53;24.60;;;6.88;;
34988;SDS011;21192;40.182;44.516;2023-09-18T08:59:22;26.42;;;7.90;;
34988;SDS011;21192;40.182;44.516;2023-09-18T09:01:52;24.38;;;7.60;;
34988;SDS011;21192;40.182;44.516;2023-09-18T09:04:18;54.88;;;9.43;;
34988;SDS011;21192;40.182;44.516;2023-09-18T09:06:44;24.05;;;6.72;;
34988;SDS011;21192;40.182;44.516;2023-09-18T09:09:10;16.25;;;6.60;;
34988;SDS011;21192;40.182;44.516;2023-09-18T09:11:38;14.48;;;5.03;;
34988;SDS011;21192;40.182;44.516;2023-09-18T09:14:13;14.25;;;5.10;;
34988;SDS011;21192;40.182;44.516;2023-09-18T09:16:49;48.13;;;11.43;;
34988;SDS011;21192;40.182;44.516;2023-09-18T09:19:16;44.83;;;10.90;;
34988;SDS011;21192;40.182;44.516;2023-09-18T09:21:42;41.17;;;8.85;;
34988;SDS011;21192;40.182;44.516;2023-09-18T09:24:09;23.05;;;5.88;;
34988;SDS011;21192;40.182;44.516;2023-09-18T09:26:41;16.67;;;4.70;;
34988;SDS011;21192;40.182;44.516;2023-09-18T09:29:18;13.15;;;5.40;;
34988;SDS011;21192;40.182;44.516;2023-09-18T09:31:45;17.95;;;5.55;;
34988;SDS011;21192;40.182;44.516;2023-09-18T09:34:11;16.98;;;6.70;;
34988;SDS011;21192;40.182;44.516;2023-09-18T09:36:52;10.88;;;5.55;;
34988;SDS011;21192;40.182;44.516;2023-09-18T09:39:19;19.30;;;6.55;;
34988;SDS011;21192;40.182;44.516;2023-09-18T09:41:47;55.72;;;9.48;;
34988;SDS011;21192;40.182;44.516;2023-09-18T09:44:14;15.65;;;7.45;;
34988;SDS011;21192;40.182;44.516;2023-09-18T09:46:47;21.10;;;5.60;;
34988;SDS011;21192;40.182;44.516;2023-09-18T09:49:14;13.85;;;5.28;;
34988;SDS011;21192;40.182;44.516;2023-09-18T09:51:42;11.15;;;4.20;;
34988;SDS011;21192;40.182;44.516;2023-09-18T09:54:09;20.92;;;6.00;;
34988;SDS011;21192;40.182;44.516;2023-09-18T09:59:13;14.93;;;4.60;;
34988;SDS011;21192;40.182;44.516;2023-09-18T10:01:40;14.75;;;4.90;;
34988;SDS011;21192;40.182;44.516;2023-09-18T10:04:14;18.15;;;5.43;;
34988;SDS011;21192;40.182;44.516;2023-09-18T10:06:46;8.80;;;4.53;;
34988;SDS011;21192;40.182;44.516;2023-09-18T10:09:16;10.25;;;4.20;;
34988;SDS011;21192;40.182;44.516;2023-09-18T10:11:49;11.10;;;4.38;;
34988;SDS011;21192;40.182;44.516;2023-09-18T10:14:18;9.40;;;4.30;;
34988;SDS011;21192;40.182;44.516;2023-09-18T10:16:49;12.98;;;4.80;;
34988;SDS011;21192;40.182;44.516;2023-09-18T10:22:42;15.55;;;7.35;;
34988;SDS011;21192;40.182;44.516;2023-09-18T10:25:18;24.95;;;8.65;;
34988;SDS011;21192;40.182;44.516;2023-09-18T10:27:49;14.75;;;5.68;;
34988;SDS011;21192;40.182;44.516;2023-09-18T10:30:23;14.77;;;5.10;;
34988;SDS011;21192;40.182;44.516;2023-09-18T10:32:50;16.85;;;5.45;;
34988;SDS011;21192;40.182;44.516;2023-09-18T10:35:16;26.33;;;7.40;;
34988;SDS011;21192;40.182;44.516;2023-09-18T10:37:45;20.92;;;5.60;;
34988;SDS011;21192;40.182;44.516;2023-09-18T10:40:12;21.23;;;6.13;;
34988;SDS011;21192;40.182;44.516;2023-09-18T10:42:39;17.08;;;6.93;;
34988;SDS011;21192;40.182;44.516;2023-09-18T10:45:10;19.42;;;6.70;;
34988;SDS011;21192;40.182;44.516;2023-09-18T10:47:37;28.15;;;7.35;;
34988;SDS011;21192;40.182;44.516;2023-09-18T10:50:05;14.52;;;4.82;;
34988;SDS011;21192;40.182;44.516;2023-09-18T10:52:32;29.70;;;7.88;;
34988;SDS011;21192;40.182;44.516;2023-09-18T10:55:09;50.17;;;9.35;;
34988;SDS011;21192;40.182;44.516;2023-09-18T10:57:37;26.88;;;5.68;;
34988;SDS011;21192;40.182;44.516;2023-09-18T11:00:18;16.40;;;5.45;;
34988;SDS011;21192;40.182;44.516;2023-09-18T11:02:49;22.10;;;10.23;;
34988;SDS011;21192;40.182;44.516;2023-09-18T11:05:28;14.27;;;5.88;;
34988;SDS011;21192;40.182;44.516;2023-09-18T11:08:43;16.77;;;5.75;;
34988;SDS011;21192;40.182;44.516;2023-09-18T11:11:06;12.95;;;4.93;;
34988;SDS011;21192;40.182;44.516;2023-09-18T11:13:45;11.32;;;5.40;;
34988;SDS011;21192;40.182;44.516;2023-09-18T11:21:29;15.75;;;4.72;;
34988;SDS011;21192;40.182;44.516;2023-09-18T11:24:03;23.13;;;5.70;;
34988;SDS011;21192;40.182;44.516;2023-09-18T11:26:34;31.90;;;6.93;;
34988;SDS011;21192;40.182;44.516;2023-09-18T11:29:04;18.35;;;5.78;;
34988;SDS011;21192;40.182;44.516;2023-09-18T11:34:24;17.77;;;6.93;;
34988;SDS011;21192;40.182;44.516;2023-09-18T11:36:54;14.90;;;5.65;;
34988;SDS011;21192;40.182;44.516;2023-09-18T11:39:40;20.90;;;6.63;;
34988;SDS011;21192;40.182;44.516;2023-09-18T11:42:10;14.07;;;5.30;;
34988;SDS011;21192;40.182;44.516;2023-09-18T11:44:44;18.60;;;5.95;;
34988;SDS011;21192;40.182;44.516;2023-09-18T11:47:13;18.67;;;6.55;;
34988;SDS011;21192;40.182;44.516;2023-09-18T11:49:48;33.05;;;8.80;;
34988;SDS011;21192;40.182;44.516;2023-09-18T11:52:24;16.60;;;6.40;;
34988;SDS011;21192;40.182;44.516;2023-09-18T11:54:58;14.23;;;5.50;;
34988;SDS011;21192;40.182;44.516;2023-09-18T11:57:25;16.10;;;5.65;;
34988;SDS011;21192;40.182;44.516;2023-09-18T11:59:53;14.65;;;5.53;;
34988;SDS011;21192;40.182;44.516;2023-09-18T12:02:27;11.48;;;5.07;;
34988;SDS011;21192;40.182;44.516;2023-09-18T12:05:10;11.43;;;4.35;;
34988;SDS011;21192;40.182;44.516;2023-09-18T12:07:39;17.50;;;4.82;;
34988;SDS011;21192;40.182;44.516;2023-09-18T12:10:11;17.92;;;5.68;;
34988;SDS011;21192;40.182;44.516;2023-09-18T12:12:46;14.60;;;6.18;;
34988;SDS011;21192;40.182;44.516;2023-09-18T12:15:16;17.33;;;4.95;;
34988;SDS011;21192;40.182;44.516;2023-09-18T12:17:43;30.38;;;8.60;;
34988;SDS011;21192;40.182;44.516;2023-09-18T12:20:18;16.05;;;5.70;;
34988;SDS011;21192;40.182;44.516;2023-09-18T12:22:46;15.65;;;4.68;;
34988;SDS011;21192;40.182;44.516;2023-09-18T12:25:14;8.70;;;4.22;;
34988;SDS011;21192;40.182;44.516;2023-09-18T12:27:41;19.98;;;5.80;;
34988;SDS011;21192;40.182;44.516;2023-09-18T12:30:07;14.23;;;3.78;;
34988;SDS011;21192;40.182;44.516;2023-09-18T12:32:37;16.45;;;6.40;;
34988;SDS011;21192;40.182;44.516;2023-09-18T12:35:04;12.77;;;4.88;;
34988;SDS011;21192;40.182;44.516;2023-09-18T12:37:32;10.73;;;4.32;;
34988;SDS011;21192;40.182;44.516;2023-09-18T12:40:06;18.75;;;5.50;;
34988;SDS011;21192;40.182;44.516;2023-09-18T12:42:39;9.60;;;4.15;;
34988;SDS011;21192;40.182;44.516;2023-09-18T12:45:08;12.90;;;5.68;;
34988;SDS011;21192;40.182;44.516;2023-09-18T12:47:35;14.18;;;4.55;;
34988;SDS011;21192;40.182;44.516;2023-09-18T12:50:04;10.68;;;4.05;;
34988;SDS011;21192;40.182;44.516;2023-09-18T12:52:36;11.63;;;3.47;;
34988;SDS011;21192;40.182;44.516;2023-09-18T12:55:02;11.90;;;3.70;;
34988;SDS011;21192;40.182;44.516;2023-09-18T12:57:31;19.48;;;5.03;;
34988;SDS011;21192;40.182;44.516;2023-09-18T13:00:07;14.60;;;4.57;;
34988;SDS011;21192;40.182;44.516;2023-09-18T13:02:38;12.27;;;4.30;;
34988;SDS011;21192;40.182;44.516;2023-09-18T13:05:05;13.95;;;4.85;;
34988;SDS011;21192;40.182;44.516;2023-09-18T13:07:31;10.10;;;4.35;;
34988;SDS011;21192;40.182;44.516;2023-09-18T13:10:08;12.68;;;4.53;;
34988;SDS011;21192;40.182;44.516;2023-09-18T13:12:46;17.73;;;4.03;;
34988;SDS011;21192;40.182;44.516;2023-09-18T13:15:32;15.23;;;5.15;;
34988;SDS011;21192;40.182;44.516;2023-09-18T13:17:59;14.77;;;4.55;;
34988;SDS011;21192;40.182;44.516;2023-09-18T13:20:29;16.63;;;6.50;;
34988;SDS011;21192;40.182;44.516;2023-09-18T13:22:56;25.33;;;6.18;;
34988;SDS011;21192;40.182;44.516;2023-09-18T13:25:31;19.85;;;5.97;;
34988;SDS011;21192;40.182;44.516;2023-09-18T13:27:59;10.77;;;4.70;;
34988;SDS011;21192;40.182;44.516;2023-09-18T13:30:27;13.77;;;5.18;;
34988;SDS011;21192;40.182;44.516;2023-09-18T13:33:01;15.65;;;5.03;;
34988;SDS011;21192;40.182;44.516;2023-09-18T13:35:29;9.60;;;4.38;;
34988;SDS011;21192;40.182;44.516;2023-09-18T13:37:54;17.75;;;6.15;;
34988;SDS011;21192;40.182;44.516;2023-09-18T13:40:20;29.58;;;6.38;;
34988;SDS011;21192;40.182;44.516;2023-09-18T13:42:47;12.30;;;4.72;;
34988;SDS011;21192;40.182;44.516;2023-09-18T13:45:14;9.20;;;4.10;;
34988;SDS011;21192;40.182;44.516;2023-09-18T13:47:41;13.57;;;4.57;;
34988;SDS011;21192;40.182;44.516;2023-09-18T13:50:07;12.98;;;4.65;;
34988;SDS011;21192;40.182;44.516;2023-09-18T13:52:35;14.43;;;5.72;;
34988;SDS011;21192;40.182;44.516;2023-09-18T13:55:04;14.02;;;5.05;;
34988;SDS011;21192;40.182;44.516;2023-09-18T13:57:31;20.42;;;8.35;;
34988;SDS011;21192;40.182;44.516;2023-09-18T13:59:59;15.32;;;5.07;;
34988;SDS011;21192;40.182;44.516;2023-09-18T14:02:26;14.45;;;4.95;;
34988;SDS011;21192;40.182;44.516;2023-09-18T14:04:53;13.30;;;4.57;;
34988;SDS011;21192;40.182;44.516;2023-09-18T14:07:21;13.00;;;5.28;;
34988;SDS011;21192;40.182;44.516;2023-09-18T14:09:48;16.20;;;8.85;;
34988;SDS011;21192;40.182;44.516;2023-09-18T14:12:16;13.38;;;5.15;;
34988;SDS011;21192;40.182;44.516;2023-09-18T14:14:42;12.70;;;4.05;;
34988;SDS011;21192;40.182;44.516;2023-09-18T14:17:09;8.05;;;3.22;;
34988;SDS011;21192;40.182;44.516;2023-09-18T14:19:36;9.20;;;3.47;;
34988;SDS011;21192;40.182;44.516;2023-09-18T14:22:07;11.57;;;4.25;;
34988;SDS011;21192;40.182;44.516;2023-09-18T14:24:34;9.35;;;3.20;;
34988;SDS011;21192;40.182;44.516;2023-09-18T14:27:03;22.92;;;4.25;;
34988;SDS011;21192;40.182;44.516;2023-09-18T14:29:29;9.70;;;3.53;;
34988;SDS011;21192;40.182;44.516;2023-09-18T14:31:55;14.73;;;4.50;;
34988;SDS011;21192;40.182;44.516;2023-09-18T14:34:22;8.13;;;3.55;;
34988;SDS011;21192;40.182;44.516;2023-09-18T14:36:47;11.57;;;5.20;;
34988;SDS011;21192;40.182;44.516;2023-09-18T14:39:13;12.50;;;6.10;;
34988;SDS011;21192;40.182;44.516;2023-09-18T14:41:39;10.27;;;5.18;;
34988;SDS011;21192;40.182;44.516;2023-09-18T14:44:09;14.98;;;7.65;;
34988;SDS011;21192;40.182;44.516;2023-09-18T14:46:36;12.25;;;6.53;;